createdAt,value
2022-10-01T00:00:40.389Z,4.72
2022-10-01T00:05:45.030Z,5.07
2022-10-01T00:10:50.685Z,4.20
2022-10-01T00:15:53.860Z,4.93
2022-10-01T00:20:58.474Z,3.47
2022-10-01T00:26:11.192Z,6.95
2022-10-01T00:31:14.760Z,4.25
2022-10-01T00:36:20.096Z,4.25
2022-10-01T00:41:23.559Z,4.40
2022-10-01T00:46:45.088Z,4.28
2022-10-01T00:51:51.880Z,3.55
2022-10-01T00:56:55.901Z,3.00
2022-10-01T01:01:59.260Z,2.97
2022-10-01T01:07:21.888Z,3.08
2022-10-01T01:12:33.627Z,4.38
2022-10-01T01:17:41.075Z,3.47
2022-10-01T01:22:54.537Z,2.78
2022-10-01T01:28:08.368Z,4.53
2022-10-01T01:33:13.080Z,2.83
2022-10-01T01:38:16.926Z,1.88
2022-10-01T01:43:23.299Z,4.00
2022-10-01T01:48:42.698Z,3.55
2022-10-01T01:53:46.381Z,3.10
2022-10-01T01:58:52.907Z,6.35
2022-10-01T02:03:56.854Z,3.08
2022-10-01T02:09:09.546Z,3.65
2022-10-01T02:14:18.637Z,4.65
2022-10-01T02:19:28.475Z,5.10
2022-10-01T02:24:43.889Z,6.72
2022-10-01T02:29:48.408Z,4.43
2022-10-01T02:34:55.034Z,5.70
2022-10-01T02:39:58.396Z,6.07
2022-10-01T02:45:03.503Z,3.70
2022-10-01T02:50:11.026Z,3.78
2022-10-01T02:55:17.575Z,4.68
2022-10-01T03:00:27.164Z,4.00
2022-10-01T03:05:32.687Z,6.72
2022-10-01T03:10:35.958Z,4.85
2022-10-01T03:15:40.763Z,7.10
2022-10-01T03:20:44.282Z,5.90
2022-10-01T03:25:48.230Z,5.43
2022-10-01T03:30:53.793Z,4.63
2022-10-01T03:35:57.300Z,6.65
2022-10-01T03:41:01.053Z,6.97
2022-10-01T03:46:05.701Z,5.63
2022-10-01T03:51:09.058Z,5.90
2022-10-01T03:56:12.496Z,5.30
2022-10-01T04:01:18.219Z,8.20
2022-10-01T04:06:22.554Z,4.85
2022-10-01T04:11:28.909Z,4.53
2022-10-01T04:16:35.040Z,3.55
2022-10-01T04:21:39.152Z,5.25
2022-10-01T04:26:42.941Z,4.20
2022-10-01T04:31:48.540Z,4.47
2022-10-01T04:36:53.725Z,3.60
2022-10-01T04:41:58.833Z,4.07
2022-10-01T04:47:08.522Z,4.47
2022-10-01T04:57:21.856Z,4.20
2022-10-01T05:07:54.513Z,3.08
2022-10-01T05:13:02.471Z,7.78
2022-10-01T05:18:10.333Z,4.38
2022-10-01T05:23:13.630Z,5.75
2022-10-01T05:28:21.354Z,5.65
2022-10-01T05:33:29.887Z,3.53
2022-10-01T05:38:37.535Z,2.77
2022-10-01T05:43:43.851Z,3.55
2022-10-01T05:48:51.308Z,3.20
2022-10-01T05:53:55.634Z,2.78
2022-10-01T05:58:59.573Z,2.78
2022-10-01T06:04:08.193Z,2.80
2022-10-01T06:09:11.867Z,3.13
2022-10-01T06:14:17.100Z,2.38
2022-10-01T06:19:21.875Z,1.25
2022-10-01T06:24:26.828Z,1.73
2022-10-01T06:29:30.454Z,1.00
2022-10-01T06:34:37.065Z,1.30
2022-10-01T06:39:40.359Z,0.95
2022-10-01T06:44:47.145Z,1.40
2022-10-01T06:49:55.594Z,3.42
2022-10-01T06:55:01.576Z,2.03
2022-10-01T07:00:05.361Z,4.95
2022-10-01T07:05:12.167Z,1.63
2022-10-01T07:10:15.362Z,1.55
2022-10-01T07:15:19.407Z,1.10
2022-10-01T07:20:27.181Z,0.98
2022-10-01T07:25:31.399Z,1.20
2022-10-01T07:30:35.315Z,1.70
2022-10-01T07:35:44.150Z,1.40
2022-10-01T07:40:52.791Z,2.10
2022-10-01T07:46:00.410Z,1.38
2022-10-01T07:51:10.111Z,2.22
2022-10-01T08:01:18.024Z,1.55
2022-10-01T08:06:25.553Z,1.90
2022-10-01T08:11:31.432Z,1.02
2022-10-01T08:16:35.228Z,1.15
2022-10-01T08:21:41.434Z,1.80
2022-10-01T08:26:45.220Z,2.40
2022-10-01T08:32:07.080Z,1.95
2022-10-01T08:37:14.391Z,2.67
2022-10-01T08:42:22.793Z,1.33
2022-10-01T08:47:38.180Z,1.88
2022-10-01T08:52:48.220Z,2.58
2022-10-01T08:58:00.368Z,1.58
2022-10-01T09:03:09.227Z,1.27
2022-10-01T09:08:22.560Z,1.75
2022-10-01T09:13:50.213Z,1.83
2022-10-01T09:19:02.274Z,2.00
2022-10-01T09:24:13.190Z,0.90
2022-10-01T09:29:28.998Z,1.35
2022-10-01T09:34:36.730Z,1.17
2022-10-01T09:39:43.807Z,1.20
2022-10-01T09:44:49.736Z,1.67
2022-10-01T09:49:55.810Z,1.45
2022-10-01T09:55:02.226Z,5.53
2022-10-01T10:00:10.149Z,1.23
2022-10-01T10:05:16.066Z,1.95
2022-10-01T10:10:26.173Z,2.47
2022-10-01T10:15:32.581Z,2.63
2022-10-01T10:20:41.626Z,2.70
2022-10-01T10:26:00.975Z,3.72
2022-10-01T10:31:04.123Z,2.03
2022-10-01T10:36:09.087Z,2.80
2022-10-01T10:41:19.715Z,2.72
2022-10-01T10:46:31.842Z,5.18
2022-10-01T10:51:51.417Z,4.03
2022-10-01T10:57:15.770Z,4.38
2022-10-01T11:02:19.683Z,5.60
2022-10-01T11:07:24.101Z,4.35
2022-10-01T11:12:41.670Z,7.32
2022-10-01T11:17:58.531Z,2.85
2022-10-01T11:23:11.204Z,3.15
2022-10-01T11:28:29.590Z,2.15
2022-10-01T11:33:37.052Z,1.67
2022-10-01T11:38:52.027Z,1.77
2022-10-01T11:44:03.924Z,3.13
2022-10-01T11:49:30.582Z,2.05
2022-10-01T11:54:34.605Z,3.05
2022-10-01T11:59:43.148Z,1.67
2022-10-01T12:04:49.951Z,1.27
2022-10-01T12:10:02.751Z,2.10
2022-10-01T12:15:18.362Z,2.30
2022-10-01T12:20:27.980Z,2.22
2022-10-01T12:25:35.053Z,2.75
2022-10-01T12:30:44.178Z,1.70
2022-10-01T12:35:57.887Z,3.55
2022-10-01T12:41:08.645Z,1.08
2022-10-01T12:46:21.307Z,4.57
2022-10-01T12:51:36.593Z,2.58
2022-10-01T12:56:41.261Z,2.60
2022-10-01T13:01:56.854Z,2.92
2022-10-01T13:07:14.227Z,9.88
2022-10-01T13:12:29.936Z,4.28
2022-10-01T13:17:37.633Z,6.15
2022-10-01T13:22:46.757Z,6.00
2022-10-01T13:32:58.586Z,6.70
2022-10-01T13:38:01.829Z,5.45
2022-10-01T13:43:10.197Z,8.48
2022-10-01T13:48:20.269Z,5.37
2022-10-01T13:53:27.384Z,8.35
2022-10-01T13:58:36.415Z,11.20
2022-10-01T14:03:45.891Z,7.28
2022-10-01T14:08:51.092Z,4.05
2022-10-01T14:14:11.451Z,6.95
2022-10-01T14:19:20.820Z,7.35
2022-10-01T14:29:40.258Z,10.35
2022-10-01T14:34:59.452Z,10.73
2022-10-01T14:40:07.679Z,17.70
2022-10-01T14:45:18.560Z,22.42
2022-10-01T14:50:25.555Z,12.60
2022-10-01T14:55:29.055Z,10.95
2022-10-01T15:00:33.394Z,13.93
2022-10-01T15:05:38.179Z,8.52
2022-10-01T15:10:44.348Z,11.23
2022-10-01T15:15:47.701Z,12.30
2022-10-01T15:20:57.157Z,10.85
2022-10-01T15:26:01.478Z,5.97
2022-10-01T15:31:06.019Z,9.85
2022-10-01T15:36:18.266Z,4.10
2022-10-01T15:41:32.611Z,8.30
2022-10-01T15:46:37.085Z,8.65
2022-10-01T15:52:08.731Z,11.98
2022-10-01T15:57:18.217Z,4.80
2022-10-01T16:02:22.704Z,5.72
2022-10-01T16:07:34.925Z,5.63
2022-10-01T16:12:38.193Z,4.18
2022-10-01T16:17:42.535Z,7.70
2022-10-01T16:22:49.773Z,9.48
2022-10-01T16:27:55.777Z,7.72
2022-10-01T16:33:02.470Z,9.75
2022-10-01T16:38:08.441Z,7.43
2022-10-01T16:43:17.345Z,7.47
2022-10-01T16:48:25.553Z,9.55
2022-10-01T16:53:30.111Z,7.07
2022-10-01T16:58:33.766Z,7.20
2022-10-01T17:03:37.538Z,5.30
2022-10-01T17:08:44.661Z,5.10
2022-10-01T17:13:50.110Z,9.57
2022-10-01T17:18:53.272Z,9.05
2022-10-01T17:24:03.552Z,8.38
2022-10-01T17:29:08.783Z,8.93
2022-10-01T17:34:12.210Z,10.05
2022-10-01T17:39:22.739Z,8.48
2022-10-01T17:44:26.942Z,11.13
2022-10-01T17:49:31.173Z,9.05
2022-10-01T17:54:37.274Z,11.38
2022-10-01T17:59:40.521Z,8.50
2022-10-01T18:04:44.351Z,14.35
2022-10-01T18:09:48.979Z,5.68
2022-10-01T18:14:52.036Z,8.38
2022-10-01T18:19:55.445Z,9.05
2022-10-01T18:25:00.073Z,12.18
2022-10-01T18:30:03.469Z,6.25
2022-10-01T18:35:13.640Z,9.68
2022-10-01T18:40:20.129Z,14.48
2022-10-01T18:45:31.260Z,12.50
2022-10-01T18:50:39.829Z,13.43
2022-10-01T18:55:54.712Z,8.15
2022-10-01T19:01:01.914Z,18.17
2022-10-01T19:06:16.964Z,15.27
2022-10-01T19:11:26.452Z,25.67
2022-10-01T19:16:39.627Z,24.85
2022-10-01T19:21:49.692Z,21.15
2022-10-01T19:26:59.167Z,13.90
2022-10-01T19:32:03.204Z,8.63
2022-10-01T19:37:11.463Z,11.93
2022-10-01T19:42:19.156Z,10.85
2022-10-01T19:47:30.592Z,10.82
2022-10-01T19:52:40.766Z,12.95
2022-10-01T19:57:46.076Z,11.75
2022-10-01T20:02:52.485Z,12.38
2022-10-01T20:08:01.979Z,17.67
2022-10-01T20:13:20.102Z,13.85
2022-10-01T20:18:28.297Z,14.27
2022-10-01T20:23:38.410Z,13.18
2022-10-01T20:28:52.030Z,14.55
2022-10-01T20:34:00.102Z,11.98
2022-10-01T20:39:05.831Z,15.60
2022-10-01T20:44:12.632Z,11.20
2022-10-01T20:49:19.393Z,14.00
2022-10-01T20:54:25.234Z,15.75
2022-10-01T20:59:31.347Z,16.13
2022-10-01T21:04:38.255Z,13.73
2022-10-01T21:09:44.582Z,9.48
2022-10-01T21:20:23.418Z,13.82
2022-10-01T21:25:31.542Z,15.93
2022-10-01T21:30:40.184Z,14.38
2022-10-01T21:35:50.898Z,11.37
2022-10-01T21:41:04.269Z,16.50
2022-10-01T21:46:14.665Z,14.73
2022-10-01T21:51:19.519Z,9.27
2022-10-01T21:56:38.569Z,11.00
2022-10-01T22:01:54.489Z,16.35
2022-10-01T22:07:00.111Z,18.13
2022-10-01T22:12:03.246Z,11.75
2022-10-01T22:17:13.223Z,7.95
2022-10-01T22:22:19.810Z,13.07
2022-10-01T22:27:24.756Z,15.40
2022-10-01T22:32:32.917Z,14.25
2022-10-01T22:37:39.463Z,8.00
2022-10-01T22:42:43.680Z,10.80
2022-10-01T22:47:59.279Z,8.80
2022-10-01T22:53:15.947Z,12.27
2022-10-01T22:58:43.757Z,8.32
2022-10-01T23:04:01.997Z,8.50
2022-10-01T23:09:08.156Z,5.97
2022-10-01T23:14:16.931Z,10.30
2022-10-01T23:19:28.840Z,14.70
2022-10-01T23:24:40.794Z,6.32
2022-10-01T23:29:54.799Z,10.65
2022-10-01T23:35:02.316Z,12.10
2022-10-01T23:40:07.962Z,14.10
2022-10-01T23:45:17.745Z,9.77
2022-10-01T23:50:31.570Z,7.22
2022-10-01T23:56:03.829Z,10.02
